Time;durP1;ratioP1;P1;durP2;ratioP2;P2;SDS_P1;SDS_P2;PMS_P1;PMS_P2;Temp;Humidity;BMP_temperature;BMP_pressure;BME280_temperature;BME280_humidity;BME280_pressure;Samples;Min_cycle;Max_cycle;Signal;HPM_P1;HPM_P2
2022/11/03 00:00:32;;;;;;;7.00;3.27;;;;;;;;;;5093338;28;20221;-31
2022/11/03 00:02:59;;;;;;;3.30;2.50;;;;;;;;;;5110172;28;20359;-33
2022/11/03 00:08:11;;;;;;;4.73;2.90;;;;;;;;;;5104479;28;20285;-32
2022/11/03 00:10:39;;;;;;;4.67;2.77;;;;;;;;;;5096749;28;20220;-32
2022/11/03 00:13:06;;;;;;;2.87;2.57;;;;;;;;;;5099373;28;20223;-29
2022/11/03 00:15:34;;;;;;;5.10;3.00;;;;;;;;;;5107948;28;20279;-31
2022/11/03 00:18:01;;;;;;;5.63;2.93;;;;;;;;;;5101644;28;20610;-31
2022/11/03 00:20:29;;;;;;;3.70;2.90;;;;;;;;;;5096556;28;20314;-31
2022/11/03 00:22:56;;;;;;;4.33;2.90;;;;;;;;;;5101313;28;20214;-31
2022/11/03 00:25:23;;;;;;;2.90;2.57;;;;;;;;;;5098077;28;20550;-33
2022/11/03 00:27:55;;;;;;;4.80;2.90;;;;;;;;;;5108944;28;20210;-31
2022/11/03 00:30:22;;;;;;;4.30;3.13;;;;;;;;;;5087367;28;20247;-32
2022/11/03 00:32:51;;;;;;;4.83;2.70;;;;;;;;;;5107272;28;20217;-32
2022/11/03 00:35:18;;;;;;;4.67;2.90;;;;;;;;;;5101179;28;20338;-29
2022/11/03 00:37:45;;;;;;;3.97;2.67;;;;;;;;;;5104086;28;20287;-33
2022/11/03 00:40:13;;;;;;;4.17;3.00;;;;;;;;;;5102897;28;20219;-30
2022/11/03 00:42:40;;;;;;;7.73;3.03;;;;;;;;;;5105053;28;20290;-32
2022/11/03 00:45:08;;;;;;;3.53;2.70;;;;;;;;;;5105394;28;20200;-32
2022/11/03 00:48:28;;;;;;;3.00;2.20;;;;;;;;;;5089990;28;20233;-30
2022/11/03 00:50:23;;;;;;;4.33;2.80;;;;;;;;;;5099512;28;20231;-30
2022/11/03 00:52:50;;;;;;;5.43;3.27;;;;;;;;;;5100961;28;20208;-31
2022/11/03 00:55:18;;;;;;;3.07;2.73;;;;;;;;;;5111226;28;20212;-35
2022/11/03 00:57:45;;;;;;;4.67;2.43;;;;;;;;;;5108828;28;20216;-31
2022/11/03 01:00:12;;;;;;;6.07;2.70;;;;;;;;;;5099011;28;20228;-33
2022/11/03 01:02:39;;;;;;;4.60;2.53;;;;;;;;;;5098716;28;20291;-29
2022/11/03 01:07:53;;;;;;;5.43;2.87;;;;;;;;;;5104019;28;20272;-29
2022/11/03 01:10:21;;;;;;;3.67;2.50;;;;;;;;;;5092735;28;20227;-32
2022/11/03 01:12:48;;;;;;;4.03;2.40;;;;;;;;;;5105947;28;20300;-30
2022/11/03 01:15:15;;;;;;;6.70;2.70;;;;;;;;;;5097044;28;20200;-29
2022/11/03 01:17:42;;;;;;;5.73;3.03;;;;;;;;;;5103818;28;20304;-29
2022/11/03 01:20:10;;;;;;;4.20;3.33;;;;;;;;;;5095224;28;20248;-29
2022/11/03 01:22:37;;;;;;;3.00;2.70;;;;;;;;;;5100716;28;20215;-31
2022/11/03 01:25:06;;;;;;;4.67;2.20;;;;;;;;;;5098023;28;20211;-31
2022/11/03 01:27:35;;;;;;;4.63;3.03;;;;;;;;;;5093106;28;20280;-31
2022/11/03 01:30:02;;;;;;;3.47;2.47;;;;;;;;;;5092083;28;20231;-33
2022/11/03 01:32:29;;;;;;;5.53;2.90;;;;;;;;;;5098360;28;20204;-31
2022/11/03 01:34:56;;;;;;;4.23;3.03;;;;;;;;;;5098250;28;20204;-32
2022/11/03 01:37:25;;;;;;;6.17;3.40;;;;;;;;;;5101911;28;20216;-33
2022/11/03 01:39:52;;;;;;;2.83;2.57;;;;;;;;;;5101794;28;20258;-29
2022/11/03 01:42:21;;;;;;;3.87;3.03;;;;;;;;;;5098943;28;20214;-28
2022/11/03 01:44:49;;;;;;;4.87;3.20;;;;;;;;;;5097209;28;20204;-29
2022/11/03 01:47:20;;;;;;;5.80;3.50;;;;;;;;;;5098281;28;20283;-30
2022/11/03 01:49:48;;;;;;;3.50;2.60;;;;;;;;;;5088692;28;20219;-29
2022/11/03 01:52:18;;;;;;;6.13;3.00;;;;;;;;;;5101134;28;20208;-31
2022/11/03 01:54:46;;;;;;;3.70;2.70;;;;;;;;;;5100012;28;20205;-31
2022/11/03 01:57:16;;;;;;;4.33;2.60;;;;;;;;;;5104135;28;20212;-30
2022/11/03 01:59:45;;;;;;;4.00;2.60;;;;;;;;;;5109198;28;20208;-30
2022/11/03 02:02:12;;;;;;;3.33;2.33;;;;;;;;;;5099796;28;20206;-32
2022/11/03 02:04:40;;;;;;;3.23;2.83;;;;;;;;;;5104912;28;20226;-32
2022/11/03 02:07:12;;;;;;;3.07;2.40;;;;;;;;;;5104011;28;20197;-30
2022/11/03 02:09:39;;;;;;;3.10;2.57;;;;;;;;;;5101698;28;20200;-31
2022/11/03 02:12:06;;;;;;;3.67;2.77;;;;;;;;;;5114454;28;20234;-31
2022/11/03 02:14:34;;;;;;;3.50;2.77;;;;;;;;;;5106781;28;20638;-31
2022/11/03 02:17:05;;;;;;;3.83;2.80;;;;;;;;;;5097502;28;20291;-31
2022/11/03 02:19:34;;;;;;;3.83;2.70;;;;;;;;;;5111471;28;20250;-29
2022/11/03 02:22:06;;;;;;;4.83;3.13;;;;;;;;;;5102682;28;20287;-32
2022/11/03 02:24:38;;;;;;;4.37;3.30;;;;;;;;;;5093100;28;20856;-30
2022/11/03 02:27:06;;;;;;;3.10;2.80;;;;;;;;;;5095081;28;20293;-33
2022/11/03 02:29:33;;;;;;;3.20;2.80;;;;;;;;;;5109216;28;20208;-29
2022/11/03 02:32:05;;;;;;;6.03;2.87;;;;;;;;;;5114658;28;20267;-29
2022/11/03 02:34:37;;;;;;;3.87;3.20;;;;;;;;;;5109568;28;20284;-31
2022/11/03 02:37:07;;;;;;;4.77;2.77;;;;;;;;;;5103682;28;20284;-29
2022/11/03 02:39:36;;;;;;;5.60;3.33;;;;;;;;;;5101364;28;20200;-30
2022/11/03 02:42:05;;;;;;;4.50;3.10;;;;;;;;;;5103060;28;20395;-28
2022/11/03 02:44:34;;;;;;;8.43;2.87;;;;;;;;;;5104841;28;20296;-32
2022/11/03 02:47:06;;;;;;;5.33;2.90;;;;;;;;;;5102073;28;20192;-32
2022/11/03 02:49:38;;;;;;;3.33;2.57;;;;;;;;;;5102558;28;20207;-29
2022/11/03 02:52:06;;;;;;;5.07;2.77;;;;;;;;;;5110801;28;20206;-30
2022/11/03 02:54:46;;;;;;;10.93;3.70;;;;;;;;;;5102587;28;20279;-31
2022/11/03 02:57:15;;;;;;;4.80;3.43;;;;;;;;;;5108359;28;20196;-30
2022/11/03 02:59:46;;;;;;;5.77;3.40;;;;;;;;;;5102218;28;20219;-28
2022/11/03 03:02:16;;;;;;;6.33;3.30;;;;;;;;;;5107969;28;20226;-33
2022/11/03 03:04:46;;;;;;;6.80;3.50;;;;;;;;;;5104118;28;20291;-29
2022/11/03 03:07:16;;;;;;;4.17;3.23;;;;;;;;;;5099380;28;20201;-30
2022/11/03 03:09:45;;;;;;;5.60;3.43;;;;;;;;;;5092260;28;20655;-28
2022/11/03 03:12:15;;;;;;;3.87;3.40;;;;;;;;;;5111959;28;20200;-34
2022/11/03 03:14:45;;;;;;;4.20;2.97;;;;;;;;;;5109714;28;20212;-30
2022/11/03 03:17:16;;;;;;;3.47;2.83;;;;;;;;;;5097223;28;20208;-32
2022/11/03 03:19:48;;;;;;;6.50;3.60;;;;;;;;;;5107474;28;20206;-32
2022/11/03 03:22:21;;;;;;;4.63;3.20;;;;;;;;;;5100774;28;20204;-28
2022/11/03 03:24:50;;;;;;;5.23;3.37;;;;;;;;;;5094202;28;20203;-31
2022/11/03 03:27:18;;;;;;;4.50;2.80;;;;;;;;;;5094717;28;20299;-32
2022/11/03 03:29:47;;;;;;;3.13;2.63;;;;;;;;;;5086437;28;20275;-28
2022/11/03 03:32:18;;;;;;;6.37;3.37;;;;;;;;;;5103728;28;20306;-33
2022/11/03 03:34:47;;;;;;;3.33;2.73;;;;;;;;;;5097849;28;20204;-31
2022/11/03 03:37:16;;;;;;;6.07;2.97;;;;;;;;;;5102306;28;20303;-34
2022/11/03 03:39:47;;;;;;;6.67;3.10;;;;;;;;;;5093924;28;20262;-27
2022/11/03 03:42:15;;;;;;;6.50;3.30;;;;;;;;;;5112285;28;20188;-31
2022/11/03 03:44:43;;;;;;;3.63;2.80;;;;;;;;;;5093405;28;20247;-29
2022/11/03 03:47:13;;;;;;;5.10;3.00;;;;;;;;;;5102624;28;20284;-30
2022/11/03 03:49:42;;;;;;;6.33;2.90;;;;;;;;;;5103414;28;20291;-28
2022/11/03 03:52:09;;;;;;;3.67;2.83;;;;;;;;;;5104411;28;20211;-32
2022/11/03 03:54:36;;;;;;;4.27;3.00;;;;;;;;;;5097930;28;20204;-30
2022/11/03 03:57:04;;;;;;;3.63;2.87;;;;;;;;;;5096900;28;20196;-34
2022/11/03 03:59:32;;;;;;;4.77;2.97;;;;;;;;;;5097413;28;20230;-30
2022/11/03 04:01:59;;;;;;;4.93;2.73;;;;;;;;;;5113555;28;20224;-32
2022/11/03 04:04:26;;;;;;;4.47;2.90;;;;;;;;;;5339176;22;20232;-31
2022/11/03 04:09:36;;;;;;;2.57;2.37;;;;;;;;;;5104605;28;20306;-32
2022/11/03 04:23:03;;;;;;;3.67;3.03;;;;;;;;;;5101729;28;20244;-33
2022/11/03 04:25:30;;;;;;;3.70;2.40;;;;;;;;;;5110768;28;20227;-33
2022/11/03 04:27:57;;;;;;;3.80;3.00;;;;;;;;;;5101069;28;20224;-31
2022/11/03 04:30:25;;;;;;;3.77;2.70;;;;;;;;;;5091835;28;20224;-32
2022/11/03 04:32:53;;;;;;;3.37;3.07;;;;;;;;;;5090339;28;20228;-31
2022/11/03 04:35:22;;;;;;;3.23;2.80;;;;;;;;;;5086922;28;20204;-30
2022/11/03 04:37:51;;;;;;;6.97;2.73;;;;;;;;;;5089551;28;20225;-33
2022/11/03 04:40:20;;;;;;;3.73;2.77;;;;;;;;;;5089597;28;20228;-32
2022/11/03 04:42:47;;;;;;;2.90;2.53;;;;;;;;;;5084897;28;20201;-31
2022/11/03 04:45:23;;;;;;;3.03;2.50;;;;;;;;;;5086465;28;20218;-33
2022/11/03 04:47:51;;;;;;;3.77;2.77;;;;;;;;;;5098513;28;20204;-36
2022/11/03 04:50:19;;;;;;;4.37;2.93;;;;;;;;;;5077673;28;20224;-32
2022/11/03 04:52:47;;;;;;;5.43;2.70;;;;;;;;;;5098717;28;20244;-35
2022/11/03 04:55:15;;;;;;;3.60;2.70;;;;;;;;;;5110311;28;20207;-33
2022/11/03 04:57:44;;;;;;;3.80;2.50;;;;;;;;;;5086831;28;20257;-32
2022/11/03 05:00:14;;;;;;;5.40;3.00;;;;;;;;;;5102705;28;20224;-30
2022/11/03 05:02:41;;;;;;;5.60;3.27;;;;;;;;;;5110413;28;20287;-31
2022/11/03 05:05:15;;;;;;;3.30;3.00;;;;;;;;;;5097938;28;20344;-32
2022/11/03 05:07:42;;;;;;;5.03;3.30;;;;;;;;;;5096197;28;20207;-34
2022/11/03 05:10:13;;;;;;;6.20;4.43;;;;;;;;;;5093074;28;20315;-30
2022/11/03 05:12:40;;;;;;;7.40;4.43;;;;;;;;;;5090013;28;20230;-31
2022/11/03 05:15:23;;;;;;;9.23;4.83;;;;;;;;;;5081022;28;20203;-31
2022/11/03 05:17:50;;;;;;;6.70;4.90;;;;;;;;;;5098047;28;20202;-33
2022/11/03 05:20:26;;;;;;;7.27;4.43;;;;;;;;;;5085664;28;20270;-29
2022/11/03 05:22:53;;;;;;;6.93;3.90;;;;;;;;;;5100145;28;20193;-33
2022/11/03 05:25:29;;;;;;;6.23;4.33;;;;;;;;;;5092872;28;20213;-31
2022/11/03 05:27:56;;;;;;;5.53;3.77;;;;;;;;;;5087373;28;20287;-28
2022/11/03 05:30:25;;;;;;;8.33;4.17;;;;;;;;;;5093061;28;20223;-30
2022/11/03 05:32:53;;;;;;;3.70;3.07;;;;;;;;;;5096705;28;20201;-31
2022/11/03 05:35:22;;;;;;;7.33;4.20;;;;;;;;;;5094122;28;20239;-32
2022/11/03 05:37:50;;;;;;;5.00;3.37;;;;;;;;;;5088856;28;20269;-33
2022/11/03 05:40:21;;;;;;;5.03;3.60;;;;;;;;;;5086918;28;20297;-36
2022/11/03 05:42:51;;;;;;;7.73;4.00;;;;;;;;;;5080469;28;20211;-29
2022/11/03 05:45:21;;;;;;;6.97;4.47;;;;;;;;;;5090974;28;20287;-29
2022/11/03 05:47:50;;;;;;;5.97;4.33;;;;;;;;;;5093874;28;20215;-33
2022/11/03 05:50:19;;;;;;;8.27;4.40;;;;;;;;;;5092650;28;20229;-31
2022/11/03 05:52:47;;;;;;;4.83;3.60;;;;;;;;;;5092953;28;20197;-33
2022/11/03 05:55:26;;;;;;;4.97;3.67;;;;;;;;;;5087797;28;20288;-31
2022/11/03 05:57:54;;;;;;;5.20;3.70;;;;;;;;;;5081093;28;20211;-28
2022/11/03 06:00:29;;;;;;;6.13;3.47;;;;;;;;;;5114125;28;20251;-32
2022/11/03 06:02:58;;;;;;;5.40;3.70;;;;;;;;;;5097489;28;20192;-35
2022/11/03 06:05:26;;;;;;;4.90;3.90;;;;;;;;;;5086832;28;20218;-33
2022/11/03 06:07:54;;;;;;;5.30;3.23;;;;;;;;;;5100661;28;20220;-34
2022/11/03 06:10:24;;;;;;;4.63;3.37;;;;;;;;;;5108699;28;20223;-32
2022/11/03 06:12:52;;;;;;;4.37;3.63;;;;;;;;;;5088038;28;20295;-31
2022/11/03 06:15:25;;;;;;;7.77;3.60;;;;;;;;;;5083589;28;20210;-28
2022/11/03 06:17:53;;;;;;;4.30;3.50;;;;;;;;;;5089556;28;20231;-29
2022/11/03 06:20:22;;;;;;;5.13;3.60;;;;;;;;;;5085499;28;20226;-33
2022/11/03 06:22:51;;;;;;;5.33;3.50;;;;;;;;;;5095742;28;20228;-32
2022/11/03 06:25:27;;;;;;;4.07;3.53;;;;;;;;;;5115507;28;20204;-32
2022/11/03 06:27:55;;;;;;;5.17;3.40;;;;;;;;;;5100076;28;20200;-30
2022/11/03 06:30:26;;;;;;;4.67;3.43;;;;;;;;;;5087955;28;20313;-33
2022/11/03 06:32:54;;;;;;;5.77;3.63;;;;;;;;;;5103547;28;20242;-30
2022/11/03 06:35:22;;;;;;;4.03;3.33;;;;;;;;;;5098280;28;20295;-30
2022/11/03 06:37:50;;;;;;;5.27;4.00;;;;;;;;;;5101217;28;20275;-31
2022/11/03 06:40:37;;;;;;;8.40;4.47;;;;;;;;;;5101746;28;20225;-29
2022/11/03 06:43:20;;;;;;;6.47;4.23;;;;;;;;;;5093429;28;20232;-30
2022/11/03 06:45:51;;;;;;;5.40;3.70;;;;;;;;;;5082688;28;20292;-30
2022/11/03 06:48:23;;;;;;;6.37;4.30;;;;;;;;;;5101255;28;20439;-31
2022/11/03 06:50:52;;;;;;;4.33;3.20;;;;;;;;;;5085873;28;20228;-31
2022/11/03 06:53:21;;;;;;;5.50;3.10;;;;;;;;;;5086708;28;20201;-32
2022/11/03 06:55:48;;;;;;;4.33;3.67;;;;;;;;;;5094378;28;20211;-30
2022/11/03 06:58:16;;;;;;;9.20;3.60;;;;;;;;;;5079788;28;20209;-29
2022/11/03 07:00:44;;;;;;;5.80;3.37;;;;;;;;;;5089424;28;20228;-30
2022/11/03 07:03:14;;;;;;;6.97;3.83;;;;;;;;;;5098111;28;20200;-34
2022/11/03 07:05:41;;;;;;;5.03;3.57;;;;;;;;;;5101456;28;20206;-32
2022/11/03 07:08:24;;;;;;;4.43;3.80;;;;;;;;;;5092115;28;20204;-30
2022/11/03 07:10:51;;;;;;;4.83;3.80;;;;;;;;;;5094579;28;20307;-32
2022/11/03 07:13:20;;;;;;;7.33;4.30;;;;;;;;;;5089548;28;20258;-27
2022/11/03 07:15:47;;;;;;;6.97;4.53;;;;;;;;;;5107379;28;20200;-29
2022/11/03 07:18:18;;;;;;;4.97;3.83;;;;;;;;;;5093721;28;20217;-33
2022/11/03 07:20:45;;;;;;;7.50;4.30;;;;;;;;;;5087910;28;20260;-34
2022/11/03 07:23:15;;;;;;;5.63;3.43;;;;;;;;;;5102132;28;20232;-33
2022/11/03 07:25:44;;;;;;;6.47;3.77;;;;;;;;;;5094123;28;20265;-31
2022/11/03 07:28:11;;;;;;;5.50;3.57;;;;;;;;;;5093518;28;20568;-32
2022/11/03 07:30:38;;;;;;;5.37;3.33;;;;;;;;;;5088730;28;20221;-33
2022/11/03 07:33:11;;;;;;;5.90;3.50;;;;;;;;;;5093585;28;20193;-34
2022/11/03 07:35:41;;;;;;;4.00;3.60;;;;;;;;;;5092768;28;20196;-32
2022/11/03 07:38:11;;;;;;;4.03;3.57;;;;;;;;;;5100549;28;20200;-33
2022/11/03 07:40:38;;;;;;;3.47;3.17;;;;;;;;;;5093727;28;20227;-31
2022/11/03 07:43:13;;;;;;;5.90;3.90;;;;;;;;;;5087306;28;20204;-31
2022/11/03 07:45:42;;;;;;;3.63;3.20;;;;;;;;;;5102729;28;20208;-32
2022/11/03 07:48:15;;;;;;;5.30;3.20;;;;;;;;;;5093320;28;20208;-28
2022/11/03 07:50:43;;;;;;;4.97;3.70;;;;;;;;;;5083879;28;20515;-32
2022/11/03 07:53:12;;;;;;;4.47;3.60;;;;;;;;;;5105497;28;20283;-30
2022/11/03 07:55:39;;;;;;;3.90;3.43;;;;;;;;;;5103159;28;20208;-29
2022/11/03 07:58:19;;;;;;;4.17;3.77;;;;;;;;;;5075764;28;20291;-30
2022/11/03 08:00:46;;;;;;;3.50;3.20;;;;;;;;;;5101931;28;20238;-29
2022/11/03 08:03:27;;;;;;;5.23;3.90;;;;;;;;;;5105906;28;20431;-33
2022/11/03 08:05:54;;;;;;;4.40;3.97;;;;;;;;;;5087858;28;20557;-34
2022/11/03 08:08:21;;;;;;;5.93;3.50;;;;;;;;;;5093009;28;20295;-29
2022/11/03 08:10:48;;;;;;;4.10;3.70;;;;;;;;;;5093121;28;20227;-31
2022/11/03 08:13:17;;;;;;;6.77;3.80;;;;;;;;;;5089062;28;20287;-32
2022/11/03 08:15:44;;;;;;;4.03;3.63;;;;;;;;;;5087640;28;20292;-31
2022/11/03 08:18:11;;;;;;;5.40;3.97;;;;;;;;;;5113625;28;20211;-32
2022/11/03 08:20:38;;;;;;;3.60;3.30;;;;;;;;;;5085635;28;20274;-30
2022/11/03 08:23:05;;;;;;;4.77;4.20;;;;;;;;;;5092624;28;20247;-31
2022/11/03 08:25:32;;;;;;;6.93;4.13;;;;;;;;;;5092700;28;20228;-34
2022/11/03 08:28:01;;;;;;;6.80;3.93;;;;;;;;;;5091817;28;20299;-32
2022/11/03 08:30:30;;;;;;;3.83;3.43;;;;;;;;;;5089541;28;20223;-31
2022/11/03 08:32:57;;;;;;;4.20;3.60;;;;;;;;;;5093176;28;20283;-32
2022/11/03 08:35:24;;;;;;;4.17;3.77;;;;;;;;;;5088967;28;20200;-31
2022/11/03 08:37:52;;;;;;;3.70;3.40;;;;;;;;;;5079337;28;20193;-32
2022/11/03 08:40:19;;;;;;;4.47;4.07;;;;;;;;;;5084674;28;20242;-32
2022/11/03 08:42:46;;;;;;;4.23;3.80;;;;;;;;;;5104934;28;20204;-34
2022/11/03 08:45:13;;;;;;;7.30;4.00;;;;;;;;;;5091990;28;20285;-31
2022/11/03 08:47:42;;;;;;;3.97;3.67;;;;;;;;;;5084153;28;20209;-31
2022/11/03 08:50:09;;;;;;;3.93;3.53;;;;;;;;;;5091242;28;20246;-30
2022/11/03 08:52:36;;;;;;;6.97;4.20;;;;;;;;;;5095806;28;20666;-29
2022/11/03 08:55:03;;;;;;;5.13;3.77;;;;;;;;;;5111609;28;20204;-31
2022/11/03 08:57:30;;;;;;;5.07;3.60;;;;;;;;;;5093178;28;20236;-30
2022/11/03 08:59:57;;;;;;;5.23;3.80;;;;;;;;;;5080405;28;20320;-33
2022/11/03 09:02:25;;;;;;;4.27;3.60;;;;;;;;;;5109690;28;20235;-28
2022/11/03 09:04:53;;;;;;;4.60;3.87;;;;;;;;;;5090190;28;20223;-30
2022/11/03 09:07:20;;;;;;;4.97;4.47;;;;;;;;;;5092004;28;20230;-32
2022/11/03 09:09:50;;;;;;;4.67;4.27;;;;;;;;;;5097038;28;20652;-32
2022/11/03 09:12:31;;;;;;;5.47;4.13;;;;;;;;;;5097465;28;20209;-32
2022/11/03 09:14:58;;;;;;;4.50;4.10;;;;;;;;;;5103226;28;20313;-32
2022/11/03 09:17:25;;;;;;;4.13;3.73;;;;;;;;;;5107273;28;20208;-30
2022/11/03 09:19:56;;;;;;;5.63;4.27;;;;;;;;;;5089666;28;20267;-31
2022/11/03 09:22:23;;;;;;;7.97;4.60;;;;;;;;;;5110788;28;20286;-30
2022/11/03 09:24:50;;;;;;;7.77;5.00;;;;;;;;;;5117270;28;20204;-32
2022/11/03 09:27:17;;;;;;;5.70;4.73;;;;;;;;;;5092993;28;20203;-32
2022/11/03 09:29:47;;;;;;;5.50;4.57;;;;;;;;;;5087455;28;20201;-31
2022/11/03 09:32:14;;;;;;;6.50;5.30;;;;;;;;;;5087615;28;20197;-30
2022/11/03 09:34:42;;;;;;;6.83;4.80;;;;;;;;;;5085937;28;20236;-33
2022/11/03 09:37:10;;;;;;;5.87;4.43;;;;;;;;;;5100427;28;20201;-31
2022/11/03 09:39:37;;;;;;;5.87;4.27;;;;;;;;;;5109422;28;20453;-27
2022/11/03 09:42:06;;;;;;;6.47;4.80;;;;;;;;;;5095571;28;20247;-30
2022/11/03 09:44:34;;;;;;;5.60;4.83;;;;;;;;;;5087859;28;20212;-35
2022/11/03 09:47:01;;;;;;;5.07;4.00;;;;;;;;;;5100383;28;20204;-31
2022/11/03 09:49:29;;;;;;;4.83;3.97;;;;;;;;;;5087505;28;20205;-30
2022/11/03 09:51:56;;;;;;;5.77;4.30;;;;;;;;;;5102119;28;20319;-33
2022/11/03 09:54:25;;;;;;;6.27;4.60;;;;;;;;;;5095812;28;20200;-32
2022/11/03 09:56:53;;;;;;;6.63;4.27;;;;;;;;;;5094839;28;20205;-29
2022/11/03 09:59:21;;;;;;;9.47;4.57;;;;;;;;;;5091895;28;20251;-28
2022/11/03 10:01:52;;;;;;;5.60;4.27;;;;;;;;;;5101051;28;20228;-28
2022/11/03 10:04:20;;;;;;;6.47;4.20;;;;;;;;;;5186744;22;20270;-32
2022/11/03 10:06:47;;;;;;;6.50;4.10;;;;;;;;;;5083069;28;20208;-32
2022/11/03 10:11:53;;;;;;;5.83;4.17;;;;;;;;;;5265336;22;20322;-33
2022/11/03 10:14:21;;;;;;;7.90;4.50;;;;;;;;;;5118041;27;20282;-31
2022/11/03 10:16:58;;;;;;;5.57;4.10;;;;;;;;;;5118424;27;20209;-28
2022/11/03 10:19:26;;;;;;;8.13;4.47;;;;;;;;;;5113001;27;20315;-32
2022/11/03 10:21:53;;;;;;;6.33;4.40;;;;;;;;;;5114921;28;20258;-31
2022/11/03 10:24:20;;;;;;;7.40;4.60;;;;;;;;;;5114573;27;20239;-30
2022/11/03 10:26:48;;;;;;;6.20;4.10;;;;;;;;;;5119555;27;20212;-31
2022/11/03 10:29:19;;;;;;;8.30;4.37;;;;;;;;;;5110041;27;20311;-33
2022/11/03 10:31:48;;;;;;;4.50;4.03;;;;;;;;;;5118041;27;20222;-33
2022/11/03 10:34:26;;;;;;;6.47;4.33;;;;;;;;;;5110113;28;20246;-31
2022/11/03 10:37:10;;;;;;;4.67;3.80;;;;;;;;;;5110780;28;20214;-34
2022/11/03 10:39:37;;;;;;;5.87;4.00;;;;;;;;;;5112675;27;20255;-31
2022/11/03 10:42:05;;;;;;;8.40;3.83;;;;;;;;;;5122275;27;20199;-29
2022/11/03 10:44:34;;;;;;;10.47;4.47;;;;;;;;;;5104085;27;20204;-33
2022/11/03 10:47:02;;;;;;;5.90;4.77;;;;;;;;;;5115755;27;20207;-33
2022/11/03 10:49:29;;;;;;;16.07;7.00;;;;;;;;;;5113307;27;20204;-34
2022/11/03 10:52:02;;;;;;;6.37;5.27;;;;;;;;;;5116469;27;20231;-32
2022/11/03 10:54:30;;;;;;;6.20;4.83;;;;;;;;;;5115106;28;20196;-31
2022/11/03 10:56:57;;;;;;;10.80;5.23;;;;;;;;;;5128761;27;20214;-30
2022/11/03 10:59:30;;;;;;;9.10;5.13;;;;;;;;;;5119933;27;20268;-31
2022/11/03 11:01:59;;;;;;;6.97;5.27;;;;;;;;;;5112726;27;20292;-34
2022/11/03 11:04:27;;;;;;;9.50;5.90;;;;;;;;;;5112191;27;20282;-33
2022/11/03 11:06:54;;;;;;;9.70;5.80;;;;;;;;;;5114475;28;20257;-32
2022/11/03 11:09:24;;;;;;;8.53;5.83;;;;;;;;;;5122704;27;20203;-32
2022/11/03 11:12:01;;;;;;;7.50;5.63;;;;;;;;;;5126082;27;20228;-31
2022/11/03 11:14:37;;;;;;;10.90;5.70;;;;;;;;;;5114094;27;20203;-30
2022/11/03 11:17:06;;;;;;;29.00;16.90;;;;;;;;;;5115119;27;20207;-33
2022/11/03 11:19:48;;;;;;;10.33;5.67;;;;;;;;;;5105950;28;20208;-31
2022/11/03 11:22:22;;;;;;;11.37;6.37;;;;;;;;;;5116050;27;20239;-32
2022/11/03 11:25:02;;;;;;;8.47;5.87;;;;;;;;;;5108296;28;20210;-32
2022/11/03 11:27:53;;;;;;;9.23;6.17;;;;;;;;;;5104748;28;20188;-33
2022/11/03 11:30:39;;;;;;;9.87;6.37;;;;;;;;;;5107017;28;20290;-32
2022/11/03 11:33:15;;;;;;;8.83;5.90;;;;;;;;;;5123575;27;20304;-33
2022/11/03 11:36:09;;;;;;;9.33;5.80;;;;;;;;;;5105577;27;20210;-32
2022/11/03 11:38:54;;;;;;;8.93;6.40;;;;;;;;;;5118561;27;20227;-30
2022/11/03 11:41:21;;;;;;;8.13;6.03;;;;;;;;;;5132072;27;20223;-31
2022/11/03 11:43:48;;;;;;;7.13;6.07;;;;;;;;;;5100392;27;20270;-35
2022/11/03 11:46:33;;;;;;;7.50;5.50;;;;;;;;;;5110587;28;20294;-31
2022/11/03 11:49:18;;;;;;;10.20;4.97;;;;;;;;;;5116102;27;20345;-34
2022/11/03 11:51:45;;;;;;;6.70;5.53;;;;;;;;;;5117904;27;20216;-34
2022/11/03 11:54:14;;;;;;;10.37;5.90;;;;;;;;;;5108674;27;20226;-31
2022/11/03 11:56:43;;;;;;;8.20;5.70;;;;;;;;;;5116782;27;20239;-35
2022/11/03 11:59:16;;;;;;;7.20;5.93;;;;;;;;;;5104462;28;20290;-32
2022/11/03 12:01:43;;;;;;;8.67;5.73;;;;;;;;;;5114168;27;20224;-34
2022/11/03 12:04:16;;;;;;;8.63;5.43;;;;;;;;;;5110133;28;20204;-34
2022/11/03 12:06:44;;;;;;;7.63;5.50;;;;;;;;;;5109584;28;20265;-34
2022/11/03 12:09:16;;;;;;;9.40;6.03;;;;;;;;;;5113367;28;20227;-35
2022/11/03 12:11:44;;;;;;;10.27;5.93;;;;;;;;;;5126039;27;20249;-30
2022/11/03 12:14:25;;;;;;;8.63;6.00;;;;;;;;;;5104274;28;20215;-35
2022/11/03 12:16:52;;;;;;;9.67;5.97;;;;;;;;;;5110641;28;20205;-34
2022/11/03 12:19:35;;;;;;;8.37;6.17;;;;;;;;;;5104917;28;20212;-31
2022/11/03 12:22:04;;;;;;;8.77;5.77;;;;;;;;;;5099802;27;20226;-32
2022/11/03 12:24:36;;;;;;;9.30;5.93;;;;;;;;;;5113590;28;20227;-31
2022/11/03 12:27:04;;;;;;;9.97;5.37;;;;;;;;;;5113342;28;20204;-30
2022/11/03 12:29:31;;;;;;;8.20;6.33;;;;;;;;;;5097455;28;20211;-33
2022/11/03 12:31:58;;;;;;;12.20;6.10;;;;;;;;;;5110033;27;20219;-32
2022/11/03 12:34:26;;;;;;;8.57;5.97;;;;;;;;;;5109925;27;20267;-30
2022/11/03 12:36:53;;;;;;;8.63;6.53;;;;;;;;;;5117814;27;20199;-33
2022/11/03 12:39:21;;;;;;;12.20;7.33;;;;;;;;;;5112824;28;20196;-32
2022/11/03 12:41:48;;;;;;;9.93;6.23;;;;;;;;;;5125265;27;20227;-32
2022/11/03 12:44:15;;;;;;;11.13;6.33;;;;;;;;;;5114528;27;20200;-32
2022/11/03 12:46:43;;;;;;;7.17;5.67;;;;;;;;;;5118686;28;20203;-31
2022/11/03 12:49:11;;;;;;;7.43;5.80;;;;;;;;;;5104147;28;20296;-35
2022/11/03 12:51:40;;;;;;;10.00;6.73;;;;;;;;;;5106758;28;20220;-31
2022/11/03 12:54:08;;;;;;;9.80;6.43;;;;;;;;;;5112215;28;20290;-34
2022/11/03 12:56:36;;;;;;;11.40;7.20;;;;;;;;;;5113204;28;20208;-34
2022/11/03 12:59:04;;;;;;;11.70;7.23;;;;;;;;;;5117464;28;20240;-33
2022/11/03 13:01:31;;;;;;;8.43;6.30;;;;;;;;;;5119305;28;20357;-35
2022/11/03 13:03:59;;;;;;;9.37;6.03;;;;;;;;;;5115578;28;20224;-32
2022/11/03 13:06:26;;;;;;;6.97;5.87;;;;;;;;;;5112835;28;20204;-32
2022/11/03 13:08:53;;;;;;;10.37;5.97;;;;;;;;;;5111340;28;20204;-31
2022/11/03 13:14:06;;;;;;;9.43;6.07;;;;;;;;;;5102352;28;20246;-33
2022/11/03 13:16:34;;;;;;;7.40;6.47;;;;;;;;;;5112202;28;20278;-33
2022/11/03 13:19:01;;;;;;;7.60;5.60;;;;;;;;;;5117214;28;20213;-32
2022/11/03 13:21:28;;;;;;;9.23;6.00;;;;;;;;;;5109304;28;20238;-33
2022/11/03 13:23:56;;;;;;;9.53;5.80;;;;;;;;;;5112573;28;20299;-30
2022/11/03 13:26:23;;;;;;;7.77;5.80;;;;;;;;;;5116617;28;20301;-30
2022/11/03 13:28:50;;;;;;;10.43;5.50;;;;;;;;;;5103088;28;20303;-31
2022/11/03 13:31:18;;;;;;;11.17;5.57;;;;;;;;;;5116786;28;20287;-29
2022/11/03 13:33:46;;;;;;;11.13;5.70;;;;;;;;;;5108212;28;20291;-30
2022/11/03 13:36:13;;;;;;;9.13;5.87;;;;;;;;;;5108842;28;20232;-29
2022/11/03 13:38:40;;;;;;;8.23;5.50;;;;;;;;;;5113066;28;20243;-34
2022/11/03 13:41:07;;;;;;;7.90;5.20;;;;;;;;;;5109961;28;20311;-33
2022/11/03 13:43:34;;;;;;;9.20;5.67;;;;;;;;;;5103535;28;20234;-31
2022/11/03 13:46:02;;;;;;;7.73;5.33;;;;;;;;;;5112217;28;20231;-31
2022/11/03 13:48:31;;;;;;;7.87;5.00;;;;;;;;;;5112626;28;20203;-33
2022/11/03 13:50:58;;;;;;;8.57;4.80;;;;;;;;;;5100654;28;20220;-34
2022/11/03 13:53:26;;;;;;;8.30;5.33;;;;;;;;;;5113330;28;20200;-29
2022/11/03 13:55:53;;;;;;;6.40;5.10;;;;;;;;;;5116274;28;20291;-30
2022/11/03 13:58:20;;;;;;;6.13;4.60;;;;;;;;;;5102464;28;20349;-30
2022/11/03 14:00:47;;;;;;;8.60;4.47;;;;;;;;;;5114472;28;20227;-28
2022/11/03 14:03:15;;;;;;;9.77;5.43;;;;;;;;;;5116225;28;20200;-29
2022/11/03 14:05:43;;;;;;;9.33;5.60;;;;;;;;;;5109585;28;20243;-30
2022/11/03 14:08:12;;;;;;;7.10;5.30;;;;;;;;;;5115656;28;20283;-31
2022/11/03 14:10:39;;;;;;;7.90;4.77;;;;;;;;;;5115032;28;20252;-31
2022/11/03 14:13:05;;;;;;;8.20;4.60;;;;;;;;;;5112808;28;20283;-32
2022/11/03 14:15:33;;;;;;;7.87;5.63;;;;;;;;;;5115228;28;20207;-29
2022/11/03 14:18:00;;;;;;;11.07;5.07;;;;;;;;;;5115289;28;20222;-30
2022/11/03 14:20:27;;;;;;;9.90;5.50;;;;;;;;;;5110975;28;20228;-29
2022/11/03 14:22:56;;;;;;;11.27;5.13;;;;;;;;;;5113972;28;20204;-31
2022/11/03 14:25:23;;;;;;;7.17;5.13;;;;;;;;;;5115717;28;20225;-31
2022/11/03 14:27:50;;;;;;;7.00;4.90;;;;;;;;;;5115369;28;20204;-33
2022/11/03 14:30:18;;;;;;;16.47;5.70;;;;;;;;;;5111514;28;20251;-28
2022/11/03 14:32:45;;;;;;;9.07;5.20;;;;;;;;;;5112321;28;20294;-30
2022/11/03 14:35:24;;;;;;;10.07;5.60;;;;;;;;;;5104381;28;20200;-29
2022/11/03 14:37:51;;;;;;;7.50;5.40;;;;;;;;;;5114086;28;20229;-31
2022/11/03 14:43:05;;;;;;;8.67;5.47;;;;;;;;;;5110829;27;20200;-31
2022/11/03 14:45:32;;;;;;;7.67;4.47;;;;;;;;;;5110990;27;20203;-32
2022/11/03 14:47:59;;;;;;;9.70;5.20;;;;;;;;;;5113051;28;20290;-34
2022/11/03 14:50:26;;;;;;;9.43;5.57;;;;;;;;;;5100405;28;20379;-31
2022/11/03 14:52:53;;;;;;;5.83;4.77;;;;;;;;;;5110312;28;20204;-30
2022/11/03 14:55:22;;;;;;;7.47;5.30;;;;;;;;;;5113809;28;20299;-31
2022/11/03 14:57:49;;;;;;;8.57;5.60;;;;;;;;;;5115300;28;20559;-31
2022/11/03 15:00:16;;;;;;;7.17;5.60;;;;;;;;;;5108879;28;20238;-31
2022/11/03 15:02:43;;;;;;;9.37;5.43;;;;;;;;;;5114898;28;20238;-31
2022/11/03 15:05:42;;;;;;;7.33;5.50;;;;;;;;;;5108164;28;20208;-32
2022/11/03 15:07:58;;;;;;;9.50;5.90;;;;;;;;;;5114384;28;20200;-31
2022/11/03 15:10:26;;;;;;;11.37;6.20;;;;;;;;;;5112139;28;20323;-31
2022/11/03 15:12:53;;;;;;;11.20;6.07;;;;;;;;;;5115451;28;20263;-33
2022/11/03 15:15:21;;;;;;;9.33;6.20;;;;;;;;;;5107506;28;20211;-33
2022/11/03 15:17:48;;;;;;;12.67;6.13;;;;;;;;;;5111416;28;20203;-30
2022/11/03 15:20:15;;;;;;;10.97;6.63;;;;;;;;;;5107412;28;20220;-29